Time;durP1;ratioP1;P1;durP2;ratioP2;P2;SDS_P1;SDS_P2;PMS_P1;PMS_P2;Temp;Humidity;BMP_temperature;BMP_pressure;BME280_temperature;BME280_humidity;BME280_pressure;Samples;Min_cycle;Max_cycle;Signal;HPM_P1;HPM_P2
2023/07/22 00:02:23;;;;;;;;;;;17.80;73.10;;;;;;5078412;28;19911;-71
2023/07/22 00:04:49;;;;;;;;;;;17.80;73.10;;;;;;5106770;28;19953;-70
2023/07/22 00:07:15;;;;;;;;;;;17.80;73.20;;;;;;5090578;28;19912;-71
2023/07/22 00:09:41;;;;;;;;;;;17.80;73.20;;;;;;5090590;28;19912;-72
2023/07/22 00:12:07;;;;;;;;;;;17.80;73.20;;;;;;5098177;28;19916;-71
2023/07/22 00:14:33;;;;;;;;;;;17.80;73.20;;;;;;5091977;28;19908;-72
2023/07/22 00:16:58;;;;;;;;;;;17.70;73.30;;;;;;5101750;28;19915;-70
2023/07/22 00:19:24;;;;;;;;;;;17.70;73.30;;;;;;5110634;28;19918;-70
2023/07/22 00:21:49;;;;;;;;;;;17.70;73.30;;;;;;5110592;28;19937;-71
2023/07/22 00:24:15;;;;;;;;;;;17.70;73.40;;;;;;5103954;28;20003;-72
2023/07/22 00:26:41;;;;;;;;;;;17.70;73.40;;;;;;5089872;28;20546;-71
2023/07/22 00:29:07;;;;;;;;;;;17.70;73.70;;;;;;5089844;28;19945;-71
2023/07/22 00:31:33;;;;;;;;;;;17.70;73.40;;;;;;5108986;28;19916;-71
2023/07/22 00:33:59;;;;;;;;;;;17.60;73.40;;;;;;5104611;28;19908;-71
2023/07/22 00:36:25;;;;;;;;;;;17.70;73.40;;;;;;5089860;28;19908;-70
2023/07/22 00:38:52;;;;;;;;;;;17.60;73.40;;;;;;5089842;28;19916;-71
2023/07/22 00:41:18;;;;;;;;;;;17.60;73.40;;;;;;5072791;28;20010;-70
2023/07/22 00:43:43;;;;;;;;;;;17.60;73.40;;;;;;5102458;28;20013;-70
2023/07/22 00:46:09;;;;;;;;;;;17.60;73.50;;;;;;5089854;28;19944;-71
2023/07/22 00:48:34;;;;;;;;;;;17.60;73.50;;;;;;5089555;28;20365;-71
2023/07/22 00:51:00;;;;;;;;;;;17.60;73.60;;;;;;5089363;28;19981;-71
2023/07/22 00:53:26;;;;;;;;;;;17.60;73.60;;;;;;5089409;28;19916;-71
2023/07/22 00:55:51;;;;;;;;;;;17.60;73.60;;;;;;5088994;28;20273;-71
2023/07/22 00:58:17;;;;;;;;;;;17.60;73.50;;;;;;5102828;28;19923;-71
2023/07/22 01:00:42;;;;;;;;;;;17.60;73.60;;;;;;5109831;28;19914;-71
2023/07/22 01:03:08;;;;;;;;;;;17.50;73.50;;;;;;5109790;28;19950;-72
2023/07/22 01:05:35;;;;;;;;;;;17.60;73.50;;;;;;5089971;28;19971;-72
2023/07/22 01:08:01;;;;;;;;;;;17.50;73.50;;;;;;5089472;28;19916;-71
2023/07/22 01:10:27;;;;;;;;;;;17.50;73.60;;;;;;5089736;28;19936;-70
2023/07/22 01:12:52;;;;;;;;;;;17.50;73.60;;;;;;5105112;28;19947;-71
2023/07/22 01:15:18;;;;;;;;;;;17.50;73.60;;;;;;5088928;28;20313;-72
2023/07/22 01:17:44;;;;;;;;;;;17.50;73.60;;;;;;5088917;28;19938;-71
2023/07/22 01:20:09;;;;;;;;;;;17.50;73.60;;;;;;5089094;28;19908;-70
2023/07/22 01:22:35;;;;;;;;;;;17.50;73.70;;;;;;5089032;28;19999;-71
2023/07/22 01:25:01;;;;;;;;;;;17.50;73.70;;;;;;5086812;28;20377;-71
2023/07/22 01:27:27;;;;;;;;;;;17.50;73.70;;;;;;5068615;28;19916;-71
2023/07/22 01:29:53;;;;;;;;;;;17.40;73.60;;;;;;5068611;28;19912;-70
2023/07/22 01:32:19;;;;;;;;;;;17.40;73.70;;;;;;5068787;28;19913;-70
2023/07/22 01:34:45;;;;;;;;;;;17.40;73.70;;;;;;5080904;28;19919;-70
2023/07/22 01:37:11;;;;;;;;;;;17.40;73.70;;;;;;5088669;28;19912;-72
2023/07/22 01:39:36;;;;;;;;;;;17.40;73.70;;;;;;5090023;28;19963;-71
2023/07/22 01:42:02;;;;;;;;;;;17.40;73.80;;;;;;5077311;28;20332;-71
2023/07/22 01:44:28;;;;;;;;;;;17.30;73.70;;;;;;5082421;28;19962;-72
2023/07/22 01:46:54;;;;;;;;;;;17.40;73.80;;;;;;5088204;28;20388;-71
2023/07/22 01:49:19;;;;;;;;;;;17.40;73.90;;;;;;5088888;28;20345;-71
2023/07/22 01:51:45;;;;;;;;;;;17.30;73.80;;;;;;5092108;28;19916;-72
2023/07/22 01:54:12;;;;;;;;;;;17.40;73.90;;;;;;5103053;28;19962;-71
2023/07/22 01:56:38;;;;;;;;;;;17.30;73.80;;;;;;5088339;28;19916;-71
2023/07/22 01:59:04;;;;;;;;;;;17.30;73.80;;;;;;5091418;28;19915;-70
2023/07/22 02:01:30;;;;;;;;;;;17.30;73.80;;;;;;5099202;28;19912;-71
2023/07/22 02:03:55;;;;;;;;;;;17.30;73.80;;;;;;5088616;28;19912;-70
2023/07/22 02:06:21;;;;;;;;;;;17.30;73.90;;;;;;5088240;28;20015;-71
2023/07/22 02:08:47;;;;;;;;;;;17.30;73.90;;;;;;5106452;28;19927;-71
2023/07/22 02:11:12;;;;;;;;;;;17.30;73.90;;;;;;5113164;28;20330;-71
2023/07/22 02:13:38;;;;;;;;;;;17.30;74.00;;;;;;5101895;28;19912;-71
2023/07/22 02:16:03;;;;;;;;;;;17.30;74.00;;;;;;5092628;28;19913;-71
2023/07/22 02:18:29;;;;;;;;;;;17.30;74.00;;;;;;5092420;28;20272;-70
2023/07/22 02:20:55;;;;;;;;;;;17.30;73.90;;;;;;5092705;28;19909;-71
2023/07/22 02:23:21;;;;;;;;;;;17.30;73.80;;;;;;5092854;28;20368;-72
2023/07/22 02:25:50;;;;;;;;;;;17.30;73.90;;;;;;5074722;28;19956;-72
2023/07/22 02:28:16;;;;;;;;;;;17.30;73.90;;;;;;5092273;28;19916;-71
2023/07/22 02:30:42;;;;;;;;;;;17.20;73.90;;;;;;5073986;28;19908;-71
2023/07/22 02:33:08;;;;;;;;;;;17.20;73.90;;;;;;5092312;28;19919;-71
2023/07/22 02:35:33;;;;;;;;;;;17.20;73.90;;;;;;5091999;28;19919;-71
2023/07/22 02:37:59;;;;;;;;;;;17.20;73.90;;;;;;5092094;28;19912;-71
2023/07/22 02:40:24;;;;;;;;;;;17.20;73.90;;;;;;5092439;28;19983;-72
2023/07/22 02:42:50;;;;;;;;;;;17.20;74.00;;;;;;5077624;28;20448;-71
2023/07/22 02:45:15;;;;;;;;;;;17.20;73.90;;;;;;5091351;28;20418;-72
2023/07/22 02:47:41;;;;;;;;;;;17.20;73.90;;;;;;5091877;28;19912;-71
2023/07/22 02:50:07;;;;;;;;;;;17.20;73.90;;;;;;5091897;28;19963;-71
2023/07/22 02:52:32;;;;;;;;;;;17.20;74.00;;;;;;5091977;28;19912;-72
2023/07/22 02:55:08;;;;;;;;;;;17.20;74.00;;;;;;5091857;28;19919;-72
2023/07/22 02:57:34;;;;;;;;;;;17.20;74.00;;;;;;5099514;28;19939;-71
2023/07/22 03:00:00;;;;;;;;;;;17.20;74.00;;;;;;5100180;28;19958;-71
2023/07/22 03:02:25;;;;;;;;;;;17.20;74.00;;;;;;5091596;28;19912;-71
2023/07/22 03:04:51;;;;;;;;;;;17.20;74.00;;;;;;5073423;28;19912;-71
2023/07/22 03:07:16;;;;;;;;;;;17.20;74.00;;;;;;5091318;28;19912;-71
2023/07/22 03:09:42;;;;;;;;;;;17.10;73.90;;;;;;5073039;28;20019;-71
2023/07/22 03:12:07;;;;;;;;;;;17.20;73.90;;;;;;5092962;28;19925;-72
2023/07/22 03:14:37;;;;;;;;;;;17.20;74.00;;;;;;5090467;28;19912;-71
2023/07/22 03:17:03;;;;;;;;;;;17.10;73.80;;;;;;5091147;28;19912;-71
2023/07/22 03:19:29;;;;;;;;;;;17.20;74.00;;;;;;5073198;28;19918;-71
2023/07/22 03:21:54;;;;;;;;;;;17.20;74.00;;;;;;5091563;28;20354;-71
2023/07/22 03:24:20;;;;;;;;;;;17.20;74.00;;;;;;5091359;28;20377;-71
2023/07/22 03:26:45;;;;;;;;;;;17.10;73.90;;;;;;5072793;28;19912;-71
2023/07/22 03:29:11;;;;;;;;;;;17.10;74.00;;;;;;5105432;28;19927;-72
2023/07/22 03:31:36;;;;;;;;;;;17.10;74.10;;;;;;5111604;28;19916;-71
2023/07/22 03:34:02;;;;;;;;;;;17.10;73.70;;;;;;5104996;28;19919;-71
2023/07/22 03:36:28;;;;;;;;;;;17.10;74.10;;;;;;5090999;28;20403;-71
2023/07/22 03:38:53;;;;;;;;;;;17.10;74.00;;;;;;5090837;28;20273;-72
2023/07/22 03:41:19;;;;;;;;;;;17.10;74.00;;;;;;5092020;28;19912;-72
2023/07/22 03:43:44;;;;;;;;;;;17.10;73.90;;;;;;5098150;28;19917;-72
2023/07/22 03:46:10;;;;;;;;;;;17.10;73.90;;;;;;5090204;28;19947;-72
2023/07/22 03:48:35;;;;;;;;;;;17.10;73.90;;;;;;5090933;28;19916;-71
2023/07/22 03:51:01;;;;;;;;;;;17.10;73.90;;;;;;5090811;28;19908;-71
2023/07/22 03:53:27;;;;;;;;;;;17.10;74.00;;;;;;5072695;28;19915;-71
2023/07/22 03:55:52;;;;;;;;;;;17.10;74.00;;;;;;5090454;28;19935;-72
2023/07/22 03:58:18;;;;;;;;;;;17.10;74.00;;;;;;5090399;28;19977;-72
2023/07/22 04:00:47;;;;;;;;;;;17.10;74.00;;;;;;5099597;28;19988;-72
2023/07/22 04:03:12;;;;;;;;;;;17.10;73.90;;;;;;5107303;28;19911;-72
2023/07/22 04:05:38;;;;;;;;;;;17.10;74.00;;;;;;5090762;28;20364;-71
2023/07/22 04:08:03;;;;;;;;;;;17.10;74.00;;;;;;5090286;28;19923;-71
2023/07/22 04:10:29;;;;;;;;;;;17.10;74.50;;;;;;5089897;28;19970;-71
2023/07/22 04:12:54;;;;;;;;;;;17.10;73.90;;;;;;5081632;28;19964;-72
2023/07/22 04:15:20;;;;;;;;;;;17.10;74.00;;;;;;5089866;28;19911;-71
2023/07/22 04:17:46;;;;;;;;;;;17.10;73.90;;;;;;5106549;28;19915;-71
2023/07/22 04:20:12;;;;;;;;;;;17.10;73.90;;;;;;5110558;28;19911;-71
2023/07/22 04:22:37;;;;;;;;;;;17.10;74.00;;;;;;5110463;28;20353;-71
2023/07/22 04:25:04;;;;;;;;;;;17.10;74.00;;;;;;5078733;28;19920;-71
2023/07/22 04:27:29;;;;;;;;;;;17.10;74.00;;;;;;5089487;28;19916;-71
2023/07/22 04:29:55;;;;;;;;;;;17.10;73.90;;;;;;5089501;28;20029;-70
2023/07/22 04:32:21;;;;;;;;;;;17.10;73.90;;;;;;5074391;28;19920;-72
2023/07/22 04:34:46;;;;;;;;;;;17.10;73.80;;;;;;5097698;28;19915;-72
2023/07/22 04:37:12;;;;;;;;;;;17.10;73.80;;;;;;5089576;28;19912;-71
2023/07/22 04:39:38;;;;;;;;;;;17.10;73.90;;;;;;5089578;28;19914;-72
2023/07/22 04:42:04;;;;;;;;;;;17.10;73.70;;;;;;5078532;28;19912;-71
2023/07/22 04:44:29;;;;;;;;;;;17.10;73.60;;;;;;5083347;28;19908;-71
2023/07/22 04:46:55;;;;;;;;;;;17.10;73.90;;;;;;5071003;28;20005;-71
2023/07/22 04:49:21;;;;;;;;;;;17.10;73.80;;;;;;5082878;28;19926;-71
2023/07/22 04:51:47;;;;;;;;;;;17.10;73.80;;;;;;5076415;28;19916;-71
2023/07/22 04:54:13;;;;;;;;;;;17.10;73.80;;;;;;5088042;28;19918;-71
2023/07/22 04:56:39;;;;;;;;;;;17.10;73.80;;;;;;5089370;28;20277;-71
2023/07/22 04:59:04;;;;;;;;;;;17.10;73.70;;;;;;5089188;28;19915;-72
2023/07/22 05:01:30;;;;;;;;;;;17.10;73.70;;;;;;5089182;28;19908;-71
2023/07/22 05:03:55;;;;;;;;;;;17.10;73.80;;;;;;5089210;28;19912;-71
2023/07/22 05:06:21;;;;;;;;;;;17.10;73.70;;;;;;5088820;28;20399;-72
2023/07/22 05:08:46;;;;;;;;;;;17.10;73.70;;;;;;5088887;28;19912;-72
2023/07/22 05:11:12;;;;;;;;;;;17.10;73.60;;;;;;5089241;28;19919;-70
2023/07/22 05:13:37;;;;;;;;;;;17.10;73.70;;;;;;5098186;28;19912;-71
2023/07/22 05:16:03;;;;;;;;;;;17.10;73.70;;;;;;5087385;28;19965;-71
2023/07/22 05:18:28;;;;;;;;;;;17.10;73.70;;;;;;5088812;28;19951;-71
2023/07/22 05:20:54;;;;;;;;;;;17.20;73.80;;;;;;5090521;28;19916;-72
2023/07/22 05:23:19;;;;;;;;;;;17.20;73.60;;;;;;5089036;28;20395;-71
2023/07/22 05:25:50;;;;;;;;;;;17.20;73.60;;;;;;5069806;28;20106;-71
2023/07/22 05:28:15;;;;;;;;;;;17.20;73.60;;;;;;5068876;28;20022;-72
2023/07/22 05:30:41;;;;;;;;;;;17.20;73.60;;;;;;5050658;28;19999;-72
2023/07/22 05:33:06;;;;;;;;;;;17.20;73.60;;;;;;5068686;28;19916;-71
2023/07/22 05:35:32;;;;;;;;;;;17.20;73.40;;;;;;5087162;28;19912;-71
2023/07/22 05:37:57;;;;;;;;;;;17.20;73.50;;;;;;5090053;28;19916;-71
2023/07/22 05:40:23;;;;;;;;;;;17.20;73.50;;;;;;5088906;28;20341;-71
2023/07/22 05:42:49;;;;;;;;;;;17.20;73.40;;;;;;5073664;28;20575;-71
2023/07/22 05:45:16;;;;;;;;;;;17.30;73.60;;;;;;5069544;28;19912;-72
2023/07/22 05:47:41;;;;;;;;;;;17.20;73.50;;;;;;5070609;28;19955;-72
2023/07/22 05:50:07;;;;;;;;;;;17.30;73.50;;;;;;5088673;28;20508;-71
2023/07/22 05:52:33;;;;;;;;;;;17.30;73.50;;;;;;5090088;28;19911;-72
2023/07/22 05:54:58;;;;;;;;;;;17.30;73.50;;;;;;5076315;28;20519;-71
2023/07/22 05:57:24;;;;;;;;;;;17.30;73.40;;;;;;5068252;28;19915;-71
2023/07/22 05:59:49;;;;;;;;;;;17.30;73.40;;;;;;5068570;28;19912;-72
2023/07/22 06:02:17;;;;;;;;;;;17.30;73.40;;;;;;5068283;28;19977;-71
2023/07/22 06:04:42;;;;;;;;;;;17.30;73.40;;;;;;5062084;28;19912;-72
2023/07/22 06:07:08;;;;;;;;;;;17.30;73.30;;;;;;5088230;28;19995;-72
2023/07/22 06:09:33;;;;;;;;;;;17.30;73.20;;;;;;5071376;28;20665;-71
2023/07/22 06:11:58;;;;;;;;;;;17.30;73.40;;;;;;5096374;28;20367;-71
2023/07/22 06:14:24;;;;;;;;;;;17.30;73.30;;;;;;5089973;28;19957;-71
2023/07/22 06:16:49;;;;;;;;;;;17.30;73.30;;;;;;5070236;28;19912;-71
2023/07/22 06:19:15;;;;;;;;;;;17.40;73.20;;;;;;5088413;28;19958;-72
2023/07/22 06:21:40;;;;;;;;;;;17.40;73.10;;;;;;5088516;28;19912;-71
2023/07/22 06:24:06;;;;;;;;;;;17.40;73.20;;;;;;5088069;28;19916;-71
2023/07/22 06:26:31;;;;;;;;;;;17.30;73.20;;;;;;5089236;28;20335;-71
2023/07/22 06:28:57;;;;;;;;;;;17.40;73.20;;;;;;5088142;28;19948;-72
2023/07/22 06:31:23;;;;;;;;;;;17.40;73.30;;;;;;5107466;28;20502;-71
2023/07/22 06:33:48;;;;;;;;;;;17.30;73.20;;;;;;5103036;28;20332;-72
2023/07/22 06:36:13;;;;;;;;;;;17.40;73.30;;;;;;5087678;28;19919;-71
2023/07/22 06:38:39;;;;;;;;;;;17.40;73.30;;;;;;5069472;28;19912;-71
2023/07/22 06:41:04;;;;;;;;;;;17.40;73.20;;;;;;5087583;28;19909;-72
2023/07/22 06:43:30;;;;;;;;;;;17.40;73.30;;;;;;5090070;28;19922;-72
2023/07/22 06:45:55;;;;;;;;;;;17.40;73.10;;;;;;5086938;28;20349;-72
2023/07/22 06:48:22;;;;;;;;;;;17.40;73.10;;;;;;5087888;28;19916;-72
2023/07/22 06:50:50;;;;;;;;;;;17.40;73.10;;;;;;5087667;28;20341;-71
2023/07/22 06:53:15;;;;;;;;;;;17.40;73.10;;;;;;5088894;28;19919;-71
2023/07/22 06:55:54;;;;;;;;;;;17.50;73.10;;;;;;5089028;28;19912;-71
2023/07/22 06:58:19;;;;;;;;;;;17.50;73.10;;;;;;5089164;28;20298;-72
2023/07/22 07:00:45;;;;;;;;;;;17.50;73.10;;;;;;5092105;28;19916;-71
2023/07/22 07:03:10;;;;;;;;;;;17.50;73.10;;;;;;5092067;28;19916;-71
2023/07/22 07:05:36;;;;;;;;;;;17.50;72.90;;;;;;5091450;28;19912;-72
2023/07/22 07:08:02;;;;;;;;;;;17.60;73.00;;;;;;5091813;28;19963;-71
2023/07/22 07:10:27;;;;;;;;;;;17.60;72.90;;;;;;5091564;28;19946;-72
2023/07/22 07:12:53;;;;;;;;;;;17.60;72.90;;;;;;5101236;28;19995;-71
2023/07/22 07:15:18;;;;;;;;;;;17.60;72.80;;;;;;5092451;28;20557;-71
2023/07/22 07:17:44;;;;;;;;;;;17.70;72.90;;;;;;5091265;28;19978;-71
2023/07/22 07:20:09;;;;;;;;;;;17.70;73.00;;;;;;5091450;28;19965;-71
2023/07/22 07:22:35;;;;;;;;;;;17.70;72.90;;;;;;5091301;28;20276;-72
2023/07/22 07:25:01;;;;;;;;;;;17.70;72.90;;;;;;5077686;28;19921;-72
2023/07/22 07:27:27;;;;;;;;;;;17.70;72.90;;;;;;5070834;28;19948;-71
2023/07/22 07:29:52;;;;;;;;;;;17.70;72.90;;;;;;5052854;28;20388;-71
2023/07/22 07:32:18;;;;;;;;;;;17.70;72.70;;;;;;5085830;28;20424;-72
2023/07/22 07:34:43;;;;;;;;;;;17.70;72.70;;;;;;5091090;28;19923;-71
2023/07/22 07:37:09;;;;;;;;;;;17.80;72.70;;;;;;5091055;28;19916;-71
2023/07/22 07:39:34;;;;;;;;;;;17.80;72.70;;;;;;5090899;28;19908;-72
2023/07/22 07:42:00;;;;;;;;;;;17.80;72.50;;;;;;5097555;28;19914;-72
2023/07/22 07:44:25;;;;;;;;;;;17.80;72.50;;;;;;5091357;28;20512;-71
2023/07/22 07:46:50;;;;;;;;;;;17.90;72.70;;;;;;5072362;28;19912;-71
2023/07/22 07:49:17;;;;;;;;;;;17.90;72.40;;;;;;5110894;28;19967;-72
2023/07/22 07:51:43;;;;;;;;;;;17.90;72.50;;;;;;5111339;28;19962;-71
2023/07/22 07:54:08;;;;;;;;;;;18.00;72.40;;;;;;5105553;28;20396;-71
2023/07/22 07:56:34;;;;;;;;;;;18.00;72.60;;;;;;5090572;28;19918;-72
2023/07/22 07:58:59;;;;;;;;;;;18.00;72.40;;;;;;5090361;28;19912;-72
2023/07/22 08:01:25;;;;;;;;;;;18.00;72.30;;;;;;5090787;28;19936;-72
2023/07/22 08:03:50;;;;;;;;;;;18.10;72.20;;;;;;5092864;28;19916;-71
2023/07/22 08:06:16;;;;;;;;;;;18.10;72.20;;;;;;5089560;28;19959;-71
2023/07/22 08:08:41;;;;;;;;;;;18.10;72.10;;;;;;5099698;28;19919;-71
2023/07/22 08:11:08;;;;;;;;;;;18.20;72.10;;;;;;5110984;28;19912;-71
2023/07/22 08:13:34;;;;;;;;;;;18.20;72.00;;;;;;5069666;28;19916;-71
2023/07/22 08:16:01;;;;;;;;;;;18.20;72.00;;;;;;5069939;28;19930;-71
2023/07/22 08:18:26;;;;;;;;;;;18.30;72.10;;;;;;5070130;28;20443;-72
2023/07/22 08:20:52;;;;;;;;;;;18.30;72.00;;;;;;5095343;28;19999;-72
2023/07/22 08:23:18;;;;;;;;;;;18.30;71.90;;;;;;5103506;28;19923;-72
2023/07/22 08:25:44;;;;;;;;;;;18.30;72.00;;;;;;5064025;28;19916;-72
2023/07/22 08:28:09;;;;;;;;;;;18.40;71.90;;;;;;5089787;28;19927;-71
2023/07/22 08:30:35;;;;;;;;;;;18.40;71.90;;;;;;5089402;28;19912;-72
2023/07/22 08:33:00;;;;;;;;;;;18.40;71.80;;;;;;5088905;28;19912;-72
2023/07/22 08:35:26;;;;;;;;;;;18.50;71.70;;;;;;5089627;28;19916;-71
2023/07/22 08:37:51;;;;;;;;;;;18.50;71.60;;;;;;5098026;28;19947;-72
2023/07/22 08:40:18;;;;;;;;;;;18.50;71.60;;;;;;5088570;28;19920;-72
2023/07/22 08:42:44;;;;;;;;;;;18.60;71.60;;;;;;5071160;28;19962;-72
2023/07/22 08:45:10;;;;;;;;;;;18.70;71.50;;;;;;5087786;28;19920;-71
2023/07/22 08:47:38;;;;;;;;;;;18.70;71.40;;;;;;5088832;28;19926;-71
2023/07/22 08:50:05;;;;;;;;;;;18.80;71.40;;;;;;5088630;28;20440;-72
2023/07/22 08:52:31;;;;;;;;;;;18.80;71.20;;;;;;5071391;28;20319;-71
2023/07/22 08:54:57;;;;;;;;;;;18.90;71.10;;;;;;5058202;28;19917;-71
2023/07/22 08:57:23;;;;;;;;;;;18.90;71.10;;;;;;5083058;28;20345;-72
2023/07/22 08:59:49;;;;;;;;;;;19.00;71.10;;;;;;5088151;28;20283;-72
2023/07/22 09:02:15;;;;;;;;;;;19.00;70.90;;;;;;5088235;28;19912;-72
2023/07/22 09:04:42;;;;;;;;;;;19.00;70.90;;;;;;5088260;28;20565;-72
2023/07/22 09:07:08;;;;;;;;;;;19.10;71.60;;;;;;5088130;28;19920;-72
2023/07/22 09:09:34;;;;;;;;;;;19.10;70.90;;;;;;5089386;28;19942;-72
2023/07/22 09:12:00;;;;;;;;;;;19.10;70.80;;;;;;5095347;28;19943;-72
2023/07/22 09:14:25;;;;;;;;;;;19.20;70.80;;;;;;5090972;28;19962;-72
2023/07/22 09:16:51;;;;;;;;;;;19.20;70.70;;;;;;5088160;28;19919;-72
2023/07/22 09:19:16;;;;;;;;;;;19.30;70.60;;;;;;5088451;28;20679;-72
2023/07/22 09:21:42;;;;;;;;;;;19.30;70.50;;;;;;5088276;28;19920;-72
2023/07/22 09:24:21;;;;;;;;;;;19.40;70.40;;;;;;5082402;28;20374;-71
2023/07/22 09:26:47;;;;;;;;;;;19.50;70.40;;;;;;5071868;28;19921;-72
2023/07/22 09:29:12;;;;;;;;;;;19.50;70.30;;;;;;5067748;28;19917;-71
2023/07/22 09:31:48;;;;;;;;;;;19.60;70.30;;;;;;5068114;28;19966;-72
2023/07/22 09:34:14;;;;;;;;;;;19.60;70.30;;;;;;5075405;28;19924;-72
2023/07/22 09:36:56;;;;;;;;;;;19.70;70.20;;;;;;5088025;28;19916;-72
2023/07/22 09:39:22;;;;;;;;;;;19.70;70.10;;;;;;5087709;28;19920;-72
2023/07/22 09:41:48;;;;;;;;;;;19.80;70.10;;;;;;5101520;28;19960;-72
2023/07/22 09:44:13;;;;;;;;;;;19.90;70.10;;;;;;5083815;28;19916;-73
2023/07/22 09:46:39;;;;;;;;;;;19.90;70.70;;;;;;5087570;28;19912;-72
2023/07/22 09:49:06;;;;;;;;;;;19.90;70.00;;;;;;5083681;28;19938;-72
2023/07/22 09:51:40;;;;;;;;;;;20.00;69.80;;;;;;5083035;28;20003;-72
2023/07/22 09:54:06;;;;;;;;;;;20.00;69.80;;;;;;5087048;28;19912;-72
2023/07/22 09:56:32;;;;;;;;;;;20.00;69.70;;;;;;5081432;28;19916;-73
2023/07/22 09:58:58;;;;;;;;;;;20.10;69.30;;;;;;5087477;28;19919;-72
2023/07/22 10:01:25;;;;;;;;;;;20.10;69.60;;;;;;5087627;28;20418;-72
2023/07/22 10:03:54;;;;;;;;;;;20.20;69.60;;;;;;5087396;28;19994;-73
2023/07/22 10:06:21;;;;;;;;;;;20.20;69.40;;;;;;5087739;28;20337;-71
2023/07/22 10:08:47;;;;;;;;;;;20.30;69.30;;;;;;5098356;28;20031;-71
2023/07/22 10:11:14;;;;;;;;;;;20.30;69.20;;;;;;5090406;28;19912;-72
2023/07/22 10:13:39;;;;;;;;;;;20.40;69.40;;;;;;5097222;28;19912;-72
2023/07/22 10:16:05;;;;;;;;;;;20.40;68.70;;;;;;5087881;28;19919;-71
2023/07/22 10:18:32;;;;;;;;;;;20.40;68.50;;;;;;5088128;28;19912;-71
2023/07/22 10:20:58;;;;;;;;;;;20.50;68.80;;;;;;5087926;28;19916;-71
2023/07/22 10:23:25;;;;;;;;;;;20.60;68.10;;;;;;5105973;28;20387;-71
2023/07/22 10:25:52;;;;;;;;;;;20.60;68.00;;;;;;5092497;28;19920;-72
2023/07/22 10:28:19;;;;;;;;;;;20.70;67.90;;;;;;5100785;28;20018;-72
2023/07/22 10:30:44;;;;;;;;;;;20.80;67.60;;;;;;5089898;28;19922;-72
2023/07/22 10:33:10;;;;;;;;;;;20.80;67.60;;;;;;5073325;28;19920;-72
2023/07/22 10:35:44;;;;;;;;;;;21.00;67.40;;;;;;5091573;28;19954;-72
2023/07/22 10:38:11;;;;;;;;;;;21.00;67.40;;;;;;5074807;28;19916;-72
2023/07/22 10:40:45;;;;;;;;;;;21.00;67.10;;;;;;5091636;28;19912;-72
2023/07/22 10:43:11;;;;;;;;;;;21.00;67.20;;;;;;5092987;28;20449;-72
2023/07/22 10:45:40;;;;;;;;;;;21.10;67.10;;;;;;5091031;28;19916;-72
2023/07/22 10:48:10;;;;;;;;;;;21.10;67.50;;;;;;5091691;28;20280;-72
2023/07/22 10:50:42;;;;;;;;;;;21.20;67.40;;;;;;5091747;28;20685;-72
2023/07/22 10:53:11;;;;;;;;;;;21.20;66.50;;;;;;5073457;28;20505;-72
2023/07/22 10:55:55;;;;;;;;;;;21.10;67.80;;;;;;5094941;28;19960;-72
2023/07/22 10:58:20;;;;;;;;;;;21.20;67.30;;;;;;5091877;28;19939;-72
2023/07/22 11:00:46;;;;;;;;;;;21.30;67.30;;;;;;5091582;28;19915;-72
2023/07/22 11:03:12;;;;;;;;;;;21.40;67.00;;;;;;5090621;28;19912;-72
2023/07/22 11:05:52;;;;;;;;;;;21.50;67.50;;;;;;5089359;28;19948;-72
2023/07/22 11:08:35;;;;;;;;;;;21.60;67.30;;;;;;5090561;28;20752;-72
2023/07/22 11:11:01;;;;;;;;;;;21.50;67.80;;;;;;5105692;28;19911;-73
2023/07/22 11:13:28;;;;;;;;;;;21.70;67.90;;;;;;5092711;28;19916;-72
2023/07/22 11:15:57;;;;;;;;;;;21.70;66.70;;;;;;5059278;28;19918;-72
2023/07/22 11:18:34;;;;;;;;;;;21.80;66.10;;;;;;5111602;28;20356;-72
2023/07/22 11:21:01;;;;;;;;;;;21.90;67.00;;;;;;5111241;27;19947;-72
2023/07/22 11:23:27;;;;;;;;;;;21.90;67.70;;;;;;5092123;28;19923;-73
2023/07/22 11:25:53;;;;;;;;;;;21.90;66.70;;;;;;5091672;28;19920;-72
2023/07/22 11:28:19;;;;;;;;;;;21.90;67.20;;;;;;5091172;28;20434;-72
2023/07/22 11:30:44;;;;;;;;;;;22.00;66.70;;;;;;5090999;28;19912;-72
2023/07/22 11:33:10;;;;;;;;;;;22.00;66.20;;;;;;5090831;28;19915;-72
2023/07/22 11:35:35;;;;;;;;;;;22.10;67.10;;;;;;5090362;28;19933;-72
2023/07/22 11:38:02;;;;;;;;;;;22.20;63.40;;;;;;5090834;28;20383;-72
2023/07/22 11:40:36;;;;;;;;;;;22.30;65.40;;;;;;5089329;28;20006;-72
2023/07/22 11:43:02;;;;;;;;;;;22.40;65.70;;;;;;5091448;28;20370;-71
2023/07/22 11:45:27;;;;;;;;;;;22.50;64.80;;;;;;5089986;28;19908;-72
2023/07/22 11:47:53;;;;;;;;;;;22.60;64.00;;;;;;5091394;28;19912;-71
2023/07/22 11:50:19;;;;;;;;;;;22.60;63.70;;;;;;5110947;28;20300;-72
2023/07/22 11:52:50;;;;;;;;;;;22.60;63.30;;;;;;5111299;28;19998;-72
2023/07/22 11:55:15;;;;;;;;;;;22.70;62.80;;;;;;5095653;28;20006;-73
2023/07/22 11:57:41;;;;;;;;;;;22.80;63.50;;;;;;5090422;28;20012;-73
2023/07/22 12:00:08;;;;;;;;;;;22.90;63.70;;;;;;5091773;28;19951;-72
2023/07/22 12:02:35;;;;;;;;;;;22.90;62.90;;;;;;5110645;28;19916;-72
2023/07/22 12:05:05;;;;;;;;;;;23.00;63.20;;;;;;5096287;28;19919;-72
2023/07/22 12:07:30;;;;;;;;;;;23.10;63.00;;;;;;5089973;28;20022;-73
2023/07/22 12:09:57;;;;;;;;;;;23.10;63.40;;;;;;5089032;28;19995;-72
2023/07/22 12:12:41;;;;;;;;;;;23.20;63.30;;;;;;5095579;28;20006;-72
2023/07/22 12:15:17;;;;;;;;;;;23.30;63.90;;;;;;5097838;28;19920;-72
2023/07/22 12:17:43;;;;;;;;;;;23.40;63.30;;;;;;5110084;28;20418;-73
2023/07/22 12:20:09;;;;;;;;;;;23.40;63.70;;;;;;5110396;28;19935;-72
2023/07/22 12:22:35;;;;;;;;;;;23.40;64.10;;;;;;5092762;28;20372;-72
2023/07/22 12:25:00;;;;;;;;;;;23.40;63.90;;;;;;5089963;28;19973;-72
2023/07/22 12:27:26;;;;;;;;;;;23.40;63.90;;;;;;5089998;28;19950;-73
2023/07/22 12:29:51;;;;;;;;;;;23.40;63.30;;;;;;5090199;28;19916;-72
2023/07/22 12:32:17;;;;;;;;;;;23.40;62.70;;;;;;5091135;28;20307;-72
2023/07/22 12:34:42;;;;;;;;;;;23.50;62.20;;;;;;5089945;28;19908;-72
2023/07/22 12:37:08;;;;;;;;;;;23.50;63.10;;;;;;5089442;28;19940;-72
2023/07/22 12:39:33;;;;;;;;;;;23.50;62.90;;;;;;5097831;28;20399;-72
2023/07/22 12:41:59;;;;;;;;;;;23.50;62.60;;;;;;5110210;28;19911;-72
2023/07/22 12:44:24;;;;;;;;;;;23.50;61.70;;;;;;5090119;28;20344;-72
2023/07/22 12:46:50;;;;;;;;;;;23.40;62.00;;;;;;5072784;28;19912;-72
2023/07/22 12:49:15;;;;;;;;;;;23.50;62.60;;;;;;5089489;28;19912;-72
2023/07/22 12:51:41;;;;;;;;;;;23.50;62.60;;;;;;5089448;28;19969;-73
2023/07/22 12:54:06;;;;;;;;;;;23.50;62.80;;;;;;5084470;28;19920;-72
2023/07/22 12:56:32;;;;;;;;;;;23.60;63.00;;;;;;5069044;28;19912;-72
2023/07/22 12:58:57;;;;;;;;;;;23.70;61.90;;;;;;5051224;28;19919;-72
2023/07/22 13:01:23;;;;;;;;;;;23.70;61.60;;;;;;5069019;28;20460;-72
2023/07/22 13:03:48;;;;;;;;;;;23.70;60.40;;;;;;5083684;28;19915;-73
2023/07/22 13:06:14;;;;;;;;;;;23.70;60.80;;;;;;5089001;28;19916;-72
2023/07/22 13:08:39;;;;;;;;;;;23.70;61.20;;;;;;5088972;28;19923;-73
2023/07/22 13:11:05;;;;;;;;;;;23.80;61.50;;;;;;5089344;28;19912;-73
2023/07/22 13:13:30;;;;;;;;;;;23.90;59.50;;;;;;5097351;28;20607;-73
2023/07/22 13:15:56;;;;;;;;;;;23.90;59.00;;;;;;5070743;28;19920;-73
2023/07/22 13:18:21;;;;;;;;;;;23.90;59.10;;;;;;5089534;28;19912;-73
2023/07/22 13:20:47;;;;;;;;;;;23.90;58.20;;;;;;5071966;28;19916;-72
2023/07/22 13:23:12;;;;;;;;;;;23.90;59.20;;;;;;5089220;28;19972;-72
2023/07/22 13:25:37;;;;;;;;;;;23.90;59.80;;;;;;5052384;28;19924;-73
2023/07/22 13:28:05;;;;;;;;;;;23.90;59.10;;;;;;5068018;28;20315;-73
2023/07/22 13:30:30;;;;;;;;;;;24.10;58.40;;;;;;5084041;28;20381;-72
2023/07/22 13:32:56;;;;;;;;;;;24.10;58.90;;;;;;5068681;28;20023;-73
2023/07/22 13:35:22;;;;;;;;;;;24.20;57.90;;;;;;5086731;28;19947;-74
2023/07/22 13:37:47;;;;;;;;;;;24.30;58.70;;;;;;5089095;28;19912;-73
2023/07/22 13:40:13;;;;;;;;;;;24.30;58.20;;;;;;5088888;28;19908;-73
2023/07/22 13:42:39;;;;;;;;;;;24.20;58.60;;;;;;5091439;28;19912;-73
2023/07/22 13:45:05;;;;;;;;;;;24.20;58.50;;;;;;5102131;28;19999;-71
2023/07/22 13:47:30;;;;;;;;;;;24.30;58.10;;;;;;5070064;28;20418;-71
2023/07/22 13:49:56;;;;;;;;;;;24.30;58.80;;;;;;5088511;28;19977;-71
2023/07/22 13:52:21;;;;;;;;;;;24.40;59.10;;;;;;5089700;28;19951;-73
2023/07/22 13:54:48;;;;;;;;;;;24.30;59.40;;;;;;5077843;28;19934;-73
2023/07/22 13:57:13;;;;;;;;;;;24.40;59.00;;;;;;5068358;28;19920;-73
2023/07/22 13:59:38;;;;;;;;;;;24.40;58.50;;;;;;5068358;28;19913;-73
2023/07/22 14:02:04;;;;;;;;;;;24.50;59.10;;;;;;5083506;28;19912;-73
2023/07/22 14:04:30;;;;;;;;;;;24.50;58.40;;;;;;5069688;28;20380;-73
2023/07/22 14:06:55;;;;;;;;;;;24.60;57.80;;;;;;5088151;28;19912;-73
2023/07/22 14:09:20;;;;;;;;;;;24.60;58.50;;;;;;5088975;28;19959;-73
2023/07/22 14:11:46;;;;;;;;;;;24.60;57.40;;;;;;5088564;28;19912;-73